Time;durP1;ratioP1;P1;durP2;ratioP2;P2;SDS_P1;SDS_P2;PMS_P1;PMS_P2;Temp;Humidity;BMP_temperature;BMP_pressure;BME280_temperature;BME280_humidity;BME280_pressure;Samples;Min_cycle;Max_cycle;Signal;HPM_P1;HPM_P2
2023/08/20 00:00:06;;;;;;;171.70;162.95;;;;;;;;;;5061600;28;20032;-64
2023/08/20 00:02:34;;;;;;;171.85;163.10;;;;;;;;;;5062437;28;20792;-64
2023/08/20 00:05:02;;;;;;;169.20;160.52;;;;;;;;;;5061909;28;20040;-65
2023/08/20 00:07:28;;;;;;;159.18;150.98;;;;;;;;;;5063473;28;20097;-64
2023/08/20 00:09:53;;;;;;;184.00;174.70;;;;;;;;;;5062597;28;20554;-65
2023/08/20 00:12:18;;;;;;;175.75;166.02;;;;;;;;;;5064876;28;20566;-64
2023/08/20 00:14:54;;;;;;;151.82;144.13;;;;;;;;;;5064174;28;20036;-64
2023/08/20 00:17:20;;;;;;;162.98;154.73;;;;;;;;;;5063334;28;20037;-64
2023/08/20 00:19:46;;;;;;;164.88;156.55;;;;;;;;;;5063080;28;20086;-64
2023/08/20 00:22:11;;;;;;;184.27;174.95;;;;;;;;;;5061531;28;20418;-64
2023/08/20 00:24:37;;;;;;;168.70;160.13;;;;;;;;;;5062890;28;20041;-64
2023/08/20 00:27:02;;;;;;;159.55;151.43;;;;;;;;;;5063326;28;20032;-64
2023/08/20 00:29:28;;;;;;;148.00;140.55;;;;;;;;;;5049310;28;20040;-64
2023/08/20 00:31:53;;;;;;;149.45;141.88;;;;;;;;;;5064302;28;20036;-64
2023/08/20 00:34:18;;;;;;;160.57;152.55;;;;;;;;;;5059055;28;20115;-64
2023/08/20 00:36:44;;;;;;;170.23;161.68;;;;;;;;;;5060719;28;20116;-64
2023/08/20 00:39:09;;;;;;;187.80;178.43;;;;;;;;;;5061116;28;20068;-64
2023/08/20 00:41:34;;;;;;;194.05;184.45;;;;;;;;;;5059756;28;20060;-64
2023/08/20 00:44:00;;;;;;;182.75;173.45;;;;;;;;;;5065433;28;20040;-64
2023/08/20 00:46:25;;;;;;;166.82;158.43;;;;;;;;;;5066153;28;20032;-64
2023/08/20 00:48:51;;;;;;;172.85;164.23;;;;;;;;;;5063228;28;20470;-64
2023/08/20 00:51:17;;;;;;;157.75;149.70;;;;;;;;;;5065520;28;20060;-64
2023/08/20 00:53:42;;;;;;;159.25;151.27;;;;;;;;;;5066179;28;20028;-64
2023/08/20 00:56:08;;;;;;;153.75;146.07;;;;;;;;;;5062892;28;20044;-64
2023/08/20 00:58:33;;;;;;;143.50;136.38;;;;;;;;;;5063933;28;20048;-64
2023/08/20 01:00:59;;;;;;;128.63;122.10;;;;;;;;;;5064873;28;20598;-64
2023/08/20 01:03:24;;;;;;;122.88;116.70;;;;;;;;;;5065189;28;20032;-64
2023/08/20 01:05:58;;;;;;;129.10;122.38;;;;;;;;;;5063289;28;20099;-64
2023/08/20 01:08:39;;;;;;;133.65;126.88;;;;;;;;;;5064638;28;20958;-64
2023/08/20 01:11:16;;;;;;;134.50;127.72;;;;;;;;;;5059914;28;20280;-67
2023/08/20 01:13:41;;;;;;;141.32;134.10;;;;;;;;;;5060984;28;20039;-63
2023/08/20 01:16:06;;;;;;;152.95;145.15;;;;;;;;;;5064857;28;20036;-66
2023/08/20 01:18:32;;;;;;;159.95;151.88;;;;;;;;;;5064542;28;20090;-67
2023/08/20 01:21:03;;;;;;;154.80;147.02;;;;;;;;;;5061603;28;20347;-66
2023/08/20 01:23:56;;;;;;;158.48;150.57;;;;;;;;;;5060162;28;20044;-64
2023/08/20 01:26:22;;;;;;;146.45;139.07;;;;;;;;;;5060615;28;20033;-66
2023/08/20 01:28:48;;;;;;;134.93;128.20;;;;;;;;;;5061208;28;20048;-66
2023/08/20 01:31:15;;;;;;;125.97;119.68;;;;;;;;;;5060907;28;20656;-63
2023/08/20 01:33:40;;;;;;;118.50;112.55;;;;;;;;;;5062275;28;20032;-63
2023/08/20 01:36:09;;;;;;;135.73;128.88;;;;;;;;;;5063671;28;20035;-66
2023/08/20 01:38:35;;;;;;;125.18;118.90;;;;;;;;;;5060126;28;20481;-66
2023/08/20 01:41:01;;;;;;;133.20;125.82;;;;;;;;;;5070976;28;20040;-67
2023/08/20 01:43:27;;;;;;;135.65;128.82;;;;;;;;;;5068961;28;20044;-66
2023/08/20 01:45:52;;;;;;;132.32;125.75;;;;;;;;;;5066511;28;20020;-67
2023/08/20 01:48:18;;;;;;;130.05;123.45;;;;;;;;;;5063614;28;20128;-66
2023/08/20 01:50:45;;;;;;;121.38;115.32;;;;;;;;;;5069277;28;20051;-64
2023/08/20 01:53:11;;;;;;;111.90;106.30;;;;;;;;;;5066925;28;20481;-64
2023/08/20 01:55:36;;;;;;;116.78;110.93;;;;;;;;;;5065214;28;20028;-68
2023/08/20 01:58:02;;;;;;;121.05;114.97;;;;;;;;;;5068286;28;20467;-65
2023/08/20 02:00:31;;;;;;;107.95;102.57;;;;;;;;;;5098988;27;20550;-65
2023/08/20 02:02:57;;;;;;;94.30;89.53;;;;;;;;;;5099087;27;20130;-65
2023/08/20 02:05:22;;;;;;;90.93;85.95;;;;;;;;;;5067713;28;20024;-63
2023/08/20 02:07:48;;;;;;;80.18;76.15;;;;;;;;;;5065304;28;20036;-63
2023/08/20 02:10:14;;;;;;;83.45;79.03;;;;;;;;;;5067106;28;20086;-64
2023/08/20 02:12:40;;;;;;;92.85;88.15;;;;;;;;;;5065300;28;20125;-67
2023/08/20 02:15:06;;;;;;;89.03;84.63;;;;;;;;;;5065913;28;20035;-64
2023/08/20 02:17:32;;;;;;;92.45;87.35;;;;;;;;;;5062290;28;20048;-65
2023/08/20 02:19:57;;;;;;;90.65;86.07;;;;;;;;;;5063107;28;20800;-63
2023/08/20 02:22:23;;;;;;;89.00;84.60;;;;;;;;;;5064370;28;20024;-65
2023/08/20 02:24:48;;;;;;;92.13;87.55;;;;;;;;;;5062377;28;20052;-65
2023/08/20 02:27:13;;;;;;;95.32;90.18;;;;;;;;;;5063540;28;20036;-63
2023/08/20 02:29:39;;;;;;;110.90;105.43;;;;;;;;;;5065175;28;20036;-65
2023/08/20 02:32:04;;;;;;;116.88;111.03;;;;;;;;;;5068751;28;20527;-65
2023/08/20 02:34:30;;;;;;;109.95;104.43;;;;;;;;;;5065732;28;20029;-63
2023/08/20 02:36:55;;;;;;;95.93;91.03;;;;;;;;;;5064566;28;20031;-63
2023/08/20 02:39:21;;;;;;;92.47;87.88;;;;;;;;;;5064295;28;20032;-67
2023/08/20 02:41:46;;;;;;;95.53;90.78;;;;;;;;;;5066822;28;20662;-63
2023/08/20 02:44:12;;;;;;;107.03;101.72;;;;;;;;;;5066627;28;20744;-63
2023/08/20 02:46:38;;;;;;;112.90;107.32;;;;;;;;;;5066517;28;20526;-63
2023/08/20 02:49:03;;;;;;;115.53;109.80;;;;;;;;;;5064828;28;20036;-63
2023/08/20 02:51:29;;;;;;;110.93;104.05;;;;;;;;;;5066330;28;20037;-66
2023/08/20 02:53:54;;;;;;;126.47;120.22;;;;;;;;;;5063778;28;20051;-63
2023/08/20 02:56:20;;;;;;;127.05;120.72;;;;;;;;;;5063736;28;20090;-66
2023/08/20 02:58:45;;;;;;;130.95;124.43;;;;;;;;;;5063179;28;20123;-66
2023/08/20 03:01:24;;;;;;;145.00;137.90;;;;;;;;;;5066153;28;20039;-66
2023/08/20 03:03:49;;;;;;;144.70;137.35;;;;;;;;;;5063158;28;20047;-66
2023/08/20 03:06:15;;;;;;;153.30;145.68;;;;;;;;;;5100415;27;20036;-63
2023/08/20 03:08:40;;;;;;;134.32;127.63;;;;;;;;;;5062763;28;20043;-63
2023/08/20 03:11:05;;;;;;;120.15;114.07;;;;;;;;;;5065462;28;20250;-64
2023/08/20 03:13:31;;;;;;;108.10;102.70;;;;;;;;;;5063877;28;20068;-63
2023/08/20 03:15:56;;;;;;;86.93;82.57;;;;;;;;;;5065765;28;20090;-63
2023/08/20 03:18:22;;;;;;;83.15;78.97;;;;;;;;;;5061810;28;20085;-63
2023/08/20 03:20:47;;;;;;;79.68;75.55;;;;;;;;;;5064567;28;20028;-64
2023/08/20 03:23:12;;;;;;;72.78;69.03;;;;;;;;;;5062944;28;20204;-66
2023/08/20 03:25:38;;;;;;;73.82;70.13;;;;;;;;;;5061886;28;20057;-66
2023/08/20 03:28:04;;;;;;;75.47;71.65;;;;;;;;;;5064843;28;20041;-66
2023/08/20 03:30:29;;;;;;;67.65;64.25;;;;;;;;;;5063921;28;20052;-66
2023/08/20 03:32:54;;;;;;;76.65;72.78;;;;;;;;;;5067825;28;20032;-66
2023/08/20 03:35:20;;;;;;;76.05;72.22;;;;;;;;;;5064931;28;20490;-66
2023/08/20 03:37:45;;;;;;;78.97;74.68;;;;;;;;;;5069607;28;20472;-66
2023/08/20 03:40:11;;;;;;;93.45;88.70;;;;;;;;;;5063309;28;20032;-64
2023/08/20 03:42:36;;;;;;;101.15;95.97;;;;;;;;;;5065388;28;20039;-66
2023/08/20 03:45:01;;;;;;;91.78;86.97;;;;;;;;;;5062645;28;20041;-64
2023/08/20 03:47:27;;;;;;;94.65;89.97;;;;;;;;;;5064197;28;20036;-64
2023/08/20 03:49:52;;;;;;;92.90;88.30;;;;;;;;;;5060500;28;20043;-64
2023/08/20 03:52:17;;;;;;;95.22;90.50;;;;;;;;;;5062897;28;20036;-67
2023/08/20 03:54:43;;;;;;;81.28;77.22;;;;;;;;;;5064226;28;20583;-67
2023/08/20 03:57:08;;;;;;;83.30;79.13;;;;;;;;;;5067368;28;20033;-67
2023/08/20 03:59:33;;;;;;;80.90;76.80;;;;;;;;;;5067026;28;20340;-67
2023/08/20 04:01:59;;;;;;;83.43;79.20;;;;;;;;;;5065795;28;20070;-67
2023/08/20 04:04:25;;;;;;;82.53;78.43;;;;;;;;;;5067379;28;20055;-67
2023/08/20 04:06:51;;;;;;;81.53;77.40;;;;;;;;;;5064303;28;20027;-67
2023/08/20 04:09:16;;;;;;;86.63;81.95;;;;;;;;;;5063737;28;20551;-67
2023/08/20 04:11:42;;;;;;;81.85;77.70;;;;;;;;;;5065021;28;20041;-64
2023/08/20 04:14:07;;;;;;;83.35;79.15;;;;;;;;;;5063801;28;20045;-67
2023/08/20 04:16:32;;;;;;;79.85;75.82;;;;;;;;;;5061610;28;20068;-67
2023/08/20 04:18:58;;;;;;;85.47;81.22;;;;;;;;;;5062155;28;20522;-67
2023/08/20 04:21:23;;;;;;;91.80;87.25;;;;;;;;;;5062805;28;20032;-64
2023/08/20 04:23:49;;;;;;;86.97;82.65;;;;;;;;;;5060236;28;20025;-67
2023/08/20 04:26:14;;;;;;;78.93;75.00;;;;;;;;;;5095569;27;20182;-64
2023/08/20 04:28:39;;;;;;;83.70;79.50;;;;;;;;;;5060723;28;20601;-65
2023/08/20 04:31:05;;;;;;;91.95;87.38;;;;;;;;;;5062576;28;20395;-67
2023/08/20 04:33:30;;;;;;;81.70;77.70;;;;;;;;;;5064439;28;20043;-67
2023/08/20 04:35:55;;;;;;;78.80;74.90;;;;;;;;;;5065838;28;20111;-67
2023/08/20 04:38:22;;;;;;;89.07;84.60;;;;;;;;;;5060567;28;20175;-64
2023/08/20 04:40:48;;;;;;;85.95;81.63;;;;;;;;;;5062339;28;20036;-67
2023/08/20 04:43:13;;;;;;;67.32;63.95;;;;;;;;;;5065394;28;20032;-67
2023/08/20 04:45:39;;;;;;;62.97;59.67;;;;;;;;;;5060748;28;20119;-70
2023/08/20 04:48:04;;;;;;;59.00;56.00;;;;;;;;;;5063233;28;20032;-64
2023/08/20 04:50:30;;;;;;;55.50;52.45;;;;;;;;;;5067222;28;20094;-64
2023/08/20 04:52:55;;;;;;;57.72;54.78;;;;;;;;;;5063461;28;20138;-67
2023/08/20 04:55:21;;;;;;;50.38;47.78;;;;;;;;;;5062930;28;20037;-67
2023/08/20 04:57:46;;;;;;;56.88;53.97;;;;;;;;;;5066154;28;20174;-64
2023/08/20 05:00:12;;;;;;;60.75;57.70;;;;;;;;;;5064780;28;20087;-64
2023/08/20 05:02:37;;;;;;;80.75;76.72;;;;;;;;;;5063189;28;20055;-64
2023/08/20 05:05:03;;;;;;;83.70;79.53;;;;;;;;;;5063185;28;20505;-64
2023/08/20 05:07:28;;;;;;;111.35;105.88;;;;;;;;;;5063075;28;20411;-64
2023/08/20 05:09:54;;;;;;;106.75;101.50;;;;;;;;;;5063358;28;20101;-64
2023/08/20 05:12:19;;;;;;;118.53;112.70;;;;;;;;;;5064175;28;20025;-64
2023/08/20 05:14:44;;;;;;;128.88;122.50;;;;;;;;;;5060540;28;20028;-67
2023/08/20 05:17:10;;;;;;;153.48;145.98;;;;;;;;;;5065833;28;20033;-63
2023/08/20 05:19:35;;;;;;;176.13;167.55;;;;;;;;;;5066274;28;20100;-64
2023/08/20 05:22:00;;;;;;;179.85;171.13;;;;;;;;;;5064005;28;20032;-67
2023/08/20 05:24:26;;;;;;;188.40;179.15;;;;;;;;;;5063855;28;20075;-63
2023/08/20 05:27:08;;;;;;;202.82;192.98;;;;;;;;;;5083131;28;20032;-67
2023/08/20 05:29:34;;;;;;;182.07;173.23;;;;;;;;;;5069021;28;20040;-63
2023/08/20 05:31:59;;;;;;;142.50;135.43;;;;;;;;;;5067532;28;20531;-67
2023/08/20 05:34:24;;;;;;;151.18;143.68;;;;;;;;;;5068970;28;20472;-63
2023/08/20 05:36:50;;;;;;;159.27;151.45;;;;;;;;;;5065928;28;20028;-66
2023/08/20 05:39:15;;;;;;;148.35;140.93;;;;;;;;;;5068379;28;20061;-63
2023/08/20 05:41:40;;;;;;;154.43;146.85;;;;;;;;;;5067097;28;20370;-67
2023/08/20 05:44:06;;;;;;;177.25;168.48;;;;;;;;;;5065550;28;20592;-67
2023/08/20 05:46:31;;;;;;;232.05;220.93;;;;;;;;;;5067697;28;20070;-63
2023/08/20 05:49:01;;;;;;;229.02;217.93;;;;;;;;;;5071399;28;20036;-68
2023/08/20 05:51:26;;;;;;;245.75;233.90;;;;;;;;;;5068423;28;20115;-66
2023/08/20 05:53:51;;;;;;;247.75;235.82;;;;;;;;;;5070334;28;20111;-67
2023/08/20 05:56:17;;;;;;;248.73;236.65;;;;;;;;;;5066136;28;20032;-67
2023/08/20 05:58:42;;;;;;;226.40;215.43;;;;;;;;;;5065634;28;20036;-63
2023/08/20 06:01:07;;;;;;;225.00;214.05;;;;;;;;;;5065710;28;20037;-67
2023/08/20 06:03:33;;;;;;;234.00;222.63;;;;;;;;;;5065981;28;20031;-63
2023/08/20 06:05:58;;;;;;;246.07;234.13;;;;;;;;;;5067211;28;20036;-66
2023/08/20 06:08:24;;;;;;;229.20;218.18;;;;;;;;;;5065341;28;20029;-66
2023/08/20 06:10:50;;;;;;;235.73;224.02;;;;;;;;;;5065538;28;20658;-66
2023/08/20 06:13:15;;;;;;;197.82;188.05;;;;;;;;;;5064888;28;20040;-63
2023/08/20 06:15:41;;;;;;;215.20;204.63;;;;;;;;;;5065992;28;20059;-67
2023/08/20 06:18:06;;;;;;;235.65;224.05;;;;;;;;;;5062044;28;20043;-67
2023/08/20 06:20:32;;;;;;;229.60;218.27;;;;;;;;;;5096547;27;20024;-67
2023/08/20 06:22:57;;;;;;;190.80;181.15;;;;;;;;;;5064951;28;20081;-63
2023/08/20 06:25:23;;;;;;;194.82;185.05;;;;;;;;;;5063622;28;20386;-64
2023/08/20 06:27:48;;;;;;;199.93;190.07;;;;;;;;;;5062902;28;20071;-68
2023/08/20 06:30:13;;;;;;;192.68;183.10;;;;;;;;;;5063576;28;20127;-63
2023/08/20 06:32:39;;;;;;;209.30;198.90;;;;;;;;;;5061103;28;20028;-63
2023/08/20 06:35:05;;;;;;;204.00;193.70;;;;;;;;;;5071835;28;20149;-68
2023/08/20 06:37:30;;;;;;;186.05;176.32;;;;;;;;;;5067190;28;20128;-63
2023/08/20 06:39:55;;;;;;;172.15;163.23;;;;;;;;;;5064910;28;20028;-63
2023/08/20 06:42:21;;;;;;;168.63;160.00;;;;;;;;;;5066614;28;20111;-63
2023/08/20 06:44:46;;;;;;;168.05;159.40;;;;;;;;;;5067372;28;20367;-63
2023/08/20 06:47:13;;;;;;;177.80;168.65;;;;;;;;;;5065440;28;20466;-67
2023/08/20 06:49:38;;;;;;;162.18;153.88;;;;;;;;;;5066323;28;20485;-67
2023/08/20 06:52:03;;;;;;;140.13;132.93;;;;;;;;;;5066200;28;20036;-69
2023/08/20 06:54:31;;;;;;;140.23;132.98;;;;;;;;;;5061500;28;20036;-69
2023/08/20 06:56:57;;;;;;;108.32;102.80;;;;;;;;;;5046096;28;20037;-69
2023/08/20 06:59:23;;;;;;;106.93;101.43;;;;;;;;;;5061071;28;20025;-69
2023/08/20 07:01:48;;;;;;;90.60;85.63;;;;;;;;;;5059824;28;20044;-67
2023/08/20 07:04:14;;;;;;;63.30;60.03;;;;;;;;;;5076842;28;20047;-67
2023/08/20 07:06:39;;;;;;;66.90;63.38;;;;;;;;;;5059727;28;20374;-67
2023/08/20 07:09:05;;;;;;;59.38;56.33;;;;;;;;;;5060494;28;20473;-67
2023/08/20 07:11:30;;;;;;;61.25;58.05;;;;;;;;;;5064374;28;20024;-68
2023/08/20 07:13:56;;;;;;;54.35;51.53;;;;;;;;;;5062020;28;20060;-67
2023/08/20 07:16:21;;;;;;;67.03;63.58;;;;;;;;;;5061858;28;20146;-69
2023/08/20 07:18:46;;;;;;;86.60;82.20;;;;;;;;;;5061078;28;20040;-66
2023/08/20 07:21:12;;;;;;;132.70;126.05;;;;;;;;;;5064327;28;20069;-69
2023/08/20 07:23:37;;;;;;;125.75;119.43;;;;;;;;;;5062244;28;20051;-67
2023/08/20 07:26:07;;;;;;;148.30;140.77;;;;;;;;;;5061022;28;20025;-67
2023/08/20 07:31:17;;;;;;;118.05;112.07;;;;;;;;;;5064608;28;20290;-62
2023/08/20 07:33:46;;;;;;;161.85;153.82;;;;;;;;;;5047003;28;20067;-61
2023/08/20 07:36:12;;;;;;;181.20;172.23;;;;;;;;;;5064209;28;20040;-61
2023/08/20 07:38:40;;;;;;;177.70;168.57;;;;;;;;;;5062883;28;20033;-62
2023/08/20 07:41:06;;;;;;;202.77;192.88;;;;;;;;;;5065811;28;20060;-62
2023/08/20 07:43:32;;;;;;;209.13;198.98;;;;;;;;;;5063180;28;20060;-64
2023/08/20 07:45:57;;;;;;;205.52;195.38;;;;;;;;;;5062051;28;20101;-64
2023/08/20 07:48:22;;;;;;;224.57;213.55;;;;;;;;;;5093982;27;20067;-63
2023/08/20 07:50:48;;;;;;;93.25;88.63;;;;;;;;;;5059639;28;20037;-63
2023/08/20 07:53:13;;;;;;;76.82;72.93;;;;;;;;;;5060046;28;20440;-68
2023/08/20 07:55:39;;;;;;;201.63;191.82;;;;;;;;;;5062073;28;20477;-65
2023/08/20 07:58:04;;;;;;;37.30;35.30;;;;;;;;;;5063876;28;20043;-68
2023/08/20 08:00:29;;;;;;;59.17;56.10;;;;;;;;;;5061927;28;20024;-63
2023/08/20 08:02:55;;;;;;;61.97;58.75;;;;;;;;;;5059804;28;20040;-63
2023/08/20 08:05:20;;;;;;;37.67;35.55;;;;;;;;;;5060229;28;20045;-62
2023/08/20 08:07:46;;;;;;;48.72;46.17;;;;;;;;;;5057140;28;20032;-62
2023/08/20 08:10:11;;;;;;;128.85;122.47;;;;;;;;;;5060783;28;20384;-63
2023/08/20 08:12:36;;;;;;;32.20;30.42;;;;;;;;;;5059588;28;20047;-64
2023/08/20 08:15:02;;;;;;;37.45;35.42;;;;;;;;;;5060758;28;20062;-62
2023/08/20 08:17:28;;;;;;;28.52;26.98;;;;;;;;;;5062834;28;20036;-63
2023/08/20 08:19:55;;;;;;;27.15;25.17;;;;;;;;;;5064145;28;20050;-62
2023/08/20 08:22:20;;;;;;;31.33;29.63;;;;;;;;;;5061406;28;20032;-62
2023/08/20 08:24:45;;;;;;;25.60;24.10;;;;;;;;;;5060551;28;20033;-62
2023/08/20 08:27:11;;;;;;;39.47;37.40;;;;;;;;;;5062202;28;20051;-62
2023/08/20 08:29:36;;;;;;;50.65;48.03;;;;;;;;;;5056574;28;20044;-63
2023/08/20 08:32:02;;;;;;;29.65;28.05;;;;;;;;;;5058780;28;20036;-63
2023/08/20 08:34:27;;;;;;;28.98;27.40;;;;;;;;;;5060396;28;20042;-63
2023/08/20 08:36:53;;;;;;;46.50;44.10;;;;;;;;;;5060206;28;20555;-63
2023/08/20 08:39:18;;;;;;;27.75;26.20;;;;;;;;;;5060392;28;20067;-63
2023/08/20 08:41:50;;;;;;;77.57;73.63;;;;;;;;;;5059843;28;20033;-63
2023/08/20 08:44:16;;;;;;;24.50;23.13;;;;;;;;;;5062247;28;20033;-63
2023/08/20 08:46:42;;;;;;;47.22;44.78;;;;;;;;;;5091396;27;20029;-62
2023/08/20 08:49:08;;;;;;;161.20;153.25;;;;;;;;;;5065687;28;20047;-62
2023/08/20 08:51:36;;;;;;;88.70;84.28;;;;;;;;;;5060773;28;20058;-62
2023/08/20 08:54:02;;;;;;;107.13;101.78;;;;;;;;;;5060965;28;20101;-64
2023/08/20 08:56:27;;;;;;;79.60;75.60;;;;;;;;;;5058958;28;20485;-62
2023/08/20 08:58:54;;;;;;;56.03;53.17;;;;;;;;;;5059571;28;20036;-63
2023/08/20 09:01:19;;;;;;;212.27;201.90;;;;;;;;;;5059974;28;20052;-63
2023/08/20 09:03:45;;;;;;;213.85;203.38;;;;;;;;;;5057926;28;20064;-62
2023/08/20 09:06:10;;;;;;;122.75;116.50;;;;;;;;;;5066179;28;20470;-63
2023/08/20 09:08:36;;;;;;;150.85;142.32;;;;;;;;;;5056230;28;20740;-64
2023/08/20 09:11:02;;;;;;;132.90;126.32;;;;;;;;;;5058011;28;20039;-63
2023/08/20 09:13:39;;;;;;;185.15;176.07;;;;;;;;;;5066708;28;20029;-64
2023/08/20 09:16:09;;;;;;;142.40;135.35;;;;;;;;;;5063893;28;20097;-63
2023/08/20 09:18:44;;;;;;;108.10;102.72;;;;;;;;;;5061372;28;20071;-64
2023/08/20 09:21:11;;;;;;;164.98;156.88;;;;;;;;;;5059105;28;20111;-64
2023/08/20 09:23:37;;;;;;;191.25;181.90;;;;;;;;;;5065890;28;20040;-63
2023/08/20 09:26:05;;;;;;;193.57;184.05;;;;;;;;;;5056826;28;20032;-64
2023/08/20 09:28:44;;;;;;;236.30;224.73;;;;;;;;;;5059323;28;20067;-63
2023/08/20 09:31:10;;;;;;;206.03;195.93;;;;;;;;;;5063635;28;20399;-64
2023/08/20 09:33:36;;;;;;;233.68;222.23;;;;;;;;;;5060753;28;20382;-62
2023/08/20 09:36:03;;;;;;;96.10;91.18;;;;;;;;;;5062691;28;20120;-64
2023/08/20 09:38:29;;;;;;;243.25;231.30;;;;;;;;;;5061958;28;20450;-63
2023/08/20 09:40:56;;;;;;;245.20;233.18;;;;;;;;;;5064012;28;20039;-63
2023/08/20 09:43:28;;;;;;;185.38;176.25;;;;;;;;;;5061289;28;20106;-63
2023/08/20 09:45:55;;;;;;;187.15;177.93;;;;;;;;;;5063763;28;20528;-63
2023/08/20 09:48:20;;;;;;;167.50;159.25;;;;;;;;;;5058569;28;20044;-63
2023/08/20 09:50:51;;;;;;;191.73;182.27;;;;;;;;;;5064195;28;20406;-64
2023/08/20 09:53:37;;;;;;;200.50;190.60;;;;;;;;;;5060963;28;20060;-63
2023/08/20 09:56:29;;;;;;;166.68;158.40;;;;;;;;;;5061371;28;20076;-64
2023/08/20 09:58:57;;;;;;;218.18;207.45;;;;;;;;;;5048395;28;20688;-63
2023/08/20 10:01:23;;;;;;;182.60;173.55;;;;;;;;;;5062191;28;20458;-63
2023/08/20 10:03:49;;;;;;;158.90;151.00;;;;;;;;;;5062632;28;20047;-63
2023/08/20 10:06:14;;;;;;;182.43;173.38;;;;;;;;;;5062839;28;20047;-63
2023/08/20 10:08:39;;;;;;;186.18;176.82;;;;;;;;;;5063389;28;20078;-63
2023/08/20 10:11:05;;;;;;;116.78;110.93;;;;;;;;;;5065703;28;20047;-68
2023/08/20 10:13:30;;;;;;;98.43;93.45;;;;;;;;;;5064198;28;20487;-69
2023/08/20 10:15:56;;;;;;;91.82;87.20;;;;;;;;;;5064268;28;20065;-69
2023/08/20 10:18:22;;;;;;;98.22;93.32;;;;;;;;;;5065867;28;20461;-69
2023/08/20 10:20:51;;;;;;;60.03;56.95;;;;;;;;;;5061455;28;20542;-69
2023/08/20 10:23:21;;;;;;;70.07;66.50;;;;;;;;;;5064642;28;20032;-71
2023/08/20 10:25:47;;;;;;;55.72;52.85;;;;;;;;;;5062121;28;20060;-69
2023/08/20 10:28:25;;;;;;;94.40;89.63;;;;;;;;;;5062381;28;20414;-69
2023/08/20 10:31:06;;;;;;;119.97;114.00;;;;;;;;;;5060385;28;20025;-69
2023/08/20 10:33:33;;;;;;;68.25;64.68;;;;;;;;;;5065281;28;20032;-69
2023/08/20 10:36:07;;;;;;;43.45;41.13;;;;;;;;;;5063448;28;20534;-69
2023/08/20 10:38:36;;;;;;;28.13;26.58;;;;;;;;;;5067217;28;20040;-70
2023/08/20 10:41:05;;;;;;;20.90;19.80;;;;;;;;;;5064770;28;20036;-69
2023/08/20 10:43:37;;;;;;;19.75;18.65;;;;;;;;;;5066222;28;20260;-70
2023/08/20 10:46:23;;;;;;;19.90;18.80;;;;;;;;;;5065527;28;20510;-69
2023/08/20 10:48:49;;;;;;;18.98;17.88;;;;;;;;;;5067360;28;20043;-70
2023/08/20 10:51:16;;;;;;;19.10;18.00;;;;;;;;;;5064004;28;20070;-70
2023/08/20 10:53:48;;;;;;;18.80;17.70;;;;;;;;;;5062842;28;20032;-70
2023/08/20 10:56:15;;;;;;;21.70;20.50;;;;;;;;;;5063555;28;20075;-68
2023/08/20 10:58:43;;;;;;;18.40;17.30;;;;;;;;;;5062492;28;20194;-71
2023/08/20 11:01:16;;;;;;;20.88;19.60;;;;;;;;;;5094188;27;20039;-68
2023/08/20 11:03:44;;;;;;;21.67;20.45;;;;;;;;;;5061013;28;20379;-69
2023/08/20 11:06:10;;;;;;;20.48;19.33;;;;;;;;;;5062719;28;20529;-70
2023/08/20 11:08:36;;;;;;;21.50;20.15;;;;;;;;;;5061018;28;20032;-68
2023/08/20 11:11:03;;;;;;;18.02;17.02;;;;;;;;;;5068853;28;20048;-70
2023/08/20 11:13:29;;;;;;;18.20;17.20;;;;;;;;;;5067397;28;20085;-70
2023/08/20 11:15:55;;;;;;;19.20;18.13;;;;;;;;;;5065815;28;20043;-71
2023/08/20 11:18:20;;;;;;;17.95;16.95;;;;;;;;;;5066248;28;20041;-69
2023/08/20 11:20:46;;;;;;;19.95;18.85;;;;;;;;;;5067853;28;20831;-69
2023/08/20 11:23:12;;;;;;;17.20;16.20;;;;;;;;;;5064885;28;20029;-69
2023/08/20 11:25:43;;;;;;;20.13;18.92;;;;;;;;;;5065128;28;20362;-69
2023/08/20 11:28:09;;;;;;;19.30;18.15;;;;;;;;;;5067513;28;20552;-69
2023/08/20 11:30:35;;;;;;;19.98;18.88;;;;;;;;;;5064466;28;20091;-69
2023/08/20 11:33:00;;;;;;;19.05;17.95;;;;;;;;;;5063014;28;20466;-71
2023/08/20 11:35:26;;;;;;;20.58;19.48;;;;;;;;;;5062235;28;20509;-69
2023/08/20 11:37:52;;;;;;;22.13;20.88;;;;;;;;;;5066177;28;20029;-69
2023/08/20 11:40:21;;;;;;;19.05;17.92;;;;;;;;;;5065173;28;20123;-71
2023/08/20 11:42:48;;;;;;;22.05;20.75;;;;;;;;;;5098586;27;20186;-70
2023/08/20 11:45:13;;;;;;;21.85;20.60;;;;;;;;;;5064522;28;20666;-69
2023/08/20 11:47:42;;;;;;;17.83;16.77;;;;;;;;;;5063608;28;20125;-69
2023/08/20 11:50:09;;;;;;;19.70;18.50;;;;;;;;;;5061773;28;20092;-70
2023/08/20 11:52:39;;;;;;;20.50;19.30;;;;;;;;;;5059991;28;20036;-70
2023/08/20 11:55:06;;;;;;;25.20;23.85;;;;;;;;;;5062239;28;20124;-70
2023/08/20 11:57:31;;;;;;;22.42;21.23;;;;;;;;;;5063066;28;20510;-70
2023/08/20 12:00:13;;;;;;;22.75;21.55;;;;;;;;;;5063292;28;20040;-71
2023/08/20 12:02:41;;;;;;;27.48;26.00;;;;;;;;;;5078941;28;20500;-70
2023/08/20 12:05:06;;;;;;;29.67;28.08;;;;;;;;;;5064858;28;20504;-70
2023/08/20 12:07:32;;;;;;;17.83;16.83;;;;;;;;;;5064561;28;20032;-71
2023/08/20 12:09:57;;;;;;;21.85;20.55;;;;;;;;;;5062146;28;20510;-69
2023/08/20 12:12:22;;;;;;;24.23;22.85;;;;;;;;;;5064315;28;20411;-72
2023/08/20 12:14:49;;;;;;;31.85;30.15;;;;;;;;;;5061725;28;20099;-72
2023/08/20 12:17:21;;;;;;;30.63;29.00;;;;;;;;;;5094373;27;20028;-71
2023/08/20 12:19:47;;;;;;;23.10;21.85;;;;;;;;;;5061923;28;20029;-68
2023/08/20 12:22:30;;;;;;;22.95;21.65;;;;;;;;;;5091149;27;20040;-69
2023/08/20 12:24:55;;;;;;;34.35;32.35;;;;;;;;;;5057780;28;20124;-71
2023/08/20 12:27:20;;;;;;;27.67;26.20;;;;;;;;;;5062277;28;20071;-62
2023/08/20 12:29:48;;;;;;;31.42;29.73;;;;;;;;;;5065246;28;20021;-64
2023/08/20 12:32:14;;;;;;;29.25;27.67;;;;;;;;;;5064965;28;20106;-62
2023/08/20 12:34:41;;;;;;;31.05;29.45;;;;;;;;;;5061433;28;20119;-62
2023/08/20 12:37:07;;;;;;;35.22;33.42;;;;;;;;;;5062908;28;20548;-64
2023/08/20 12:39:32;;;;;;;37.17;35.15;;;;;;;;;;5056473;28;20036;-62
2023/08/20 12:41:57;;;;;;;37.05;35.15;;;;;;;;;;5055820;28;20036;-61
2023/08/20 12:44:23;;;;;;;35.35;33.55;;;;;;;;;;5061505;28;20051;-64
2023/08/20 12:46:48;;;;;;;37.40;35.40;;;;;;;;;;5065876;28;20058;-62
2023/08/20 12:49:14;;;;;;;36.95;34.85;;;;;;;;;;5063254;28;20115;-69
2023/08/20 12:51:39;;;;;;;35.17;33.28;;;;;;;;;;5062152;28;20044;-63
2023/08/20 12:54:05;;;;;;;55.60;52.75;;;;;;;;;;5063193;28;20031;-64
2023/08/20 12:56:30;;;;;;;60.10;57.08;;;;;;;;;;5063851;28;20074;-61
2023/08/20 12:58:56;;;;;;;37.17;35.28;;;;;;;;;;5058402;28;20033;-62
2023/08/20 13:01:21;;;;;;;36.92;34.92;;;;;;;;;;5062077;28;20036;-62
2023/08/20 13:03:47;;;;;;;37.08;35.08;;;;;;;;;;5062925;28;20369;-62
2023/08/20 13:06:13;;;;;;;34.47;32.67;;;;;;;;;;5064113;28;20433;-62
2023/08/20 13:08:39;;;;;;;34.15;32.35;;;;;;;;;;5058708;28;20037;-62
2023/08/20 13:11:06;;;;;;;53.25;50.58;;;;;;;;;;5065187;28;20044;-61
2023/08/20 13:13:33;;;;;;;41.35;39.17;;;;;;;;;;5063455;28;20064;-61
2023/08/20 13:16:00;;;;;;;62.63;59.47;;;;;;;;;;5064351;28;20029;-61
2023/08/20 13:18:25;;;;;;;86.78;82.47;;;;;;;;;;5062511;28;20230;-61
2023/08/20 13:20:54;;;;;;;83.13;79.00;;;;;;;;;;5063428;28;20066;-61
2023/08/20 13:23:19;;;;;;;40.77;38.57;;;;;;;;;;5062795;28;20032;-63
2023/08/20 13:25:45;;;;;;;49.20;46.55;;;;;;;;;;5058967;28;20040;-64
2023/08/20 13:28:10;;;;;;;54.33;51.58;;;;;;;;;;5059225;28;20032;-63
2023/08/20 13:30:36;;;;;;;61.92;58.80;;;;;;;;;;5061413;28;20048;-63
2023/08/20 13:33:01;;;;;;;78.18;74.30;;;;;;;;;;5061200;28;20135;-63
2023/08/20 13:35:27;;;;;;;50.50;47.85;;;;;;;;;;5064260;28;20551;-63
2023/08/20 13:37:52;;;;;;;99.57;93.75;;;;;;;;;;5066847;28;20033;-63
2023/08/20 13:40:18;;;;;;;104.78;99.60;;;;;;;;;;5062545;28;20032;-64
2023/08/20 13:42:43;;;;;;;89.15;83.93;;;;;;;;;;5067880;28;20039;-64
2023/08/20 13:45:09;;;;;;;95.70;90.93;;;;;;;;;;5063817;28;20118;-63
2023/08/20 13:47:34;;;;;;;96.47;91.65;;;;;;;;;;5063606;28;20050;-64
2023/08/20 13:50:00;;;;;;;74.32;70.57;;;;;;;;;;5066452;28;20123;-64
2023/08/20 13:52:25;;;;;;;123.57;116.53;;;;;;;;;;5067843;28;20367;-63
2023/08/20 13:54:51;;;;;;;102.93;97.70;;;;;;;;;;5064145;28;20044;-63
2023/08/20 13:57:16;;;;;;;88.70;84.30;;;;;;;;;;5063627;28;20434;-63
2023/08/20 13:59:42;;;;;;;56.47;53.63;;;;;;;;;;5063786;28;20388;-64
2023/08/20 14:02:07;;;;;;;96.15;91.38;;;;;;;;;;5067484;28;20055;-64
2023/08/20 14:04:32;;;;;;;93.40;88.68;;;;;;;;;;5063277;28;20029;-64